createdAt,value
2017-10-02T00:00:42.318Z,41.77
2017-10-02T00:03:08.561Z,43.47
2017-10-02T00:05:34.806Z,36.10
2017-10-02T00:08:01.240Z,33.70
2017-10-02T00:10:27.481Z,35.77
2017-10-02T00:12:53.751Z,37.13
2017-10-02T00:15:19.988Z,38.23
2017-10-02T00:17:46.360Z,37.70
2017-10-02T00:20:12.635Z,39.10
2017-10-02T00:22:38.885Z,46.10
2017-10-02T00:25:05.113Z,35.10
2017-10-02T00:27:31.487Z,34.27
2017-10-02T00:29:57.735Z,34.80
2017-10-02T00:32:23.966Z,34.13
2017-10-02T00:34:50.232Z,37.37
2017-10-02T00:37:16.496Z,32.10
2017-10-02T00:39:42.760Z,33.77
2017-10-02T00:42:09.013Z,33.80
2017-10-02T00:44:35.261Z,33.13
2017-10-02T00:47:01.508Z,31.77
2017-10-02T00:49:27.781Z,32.47
2017-10-02T00:51:54.008Z,31.83
2017-10-02T00:54:20.244Z,32.10
2017-10-02T00:56:46.492Z,45.17
2017-10-02T00:59:12.866Z,58.07
2017-10-02T01:01:39.109Z,53.90
2017-10-02T01:04:05.349Z,40.20
2017-10-02T01:06:31.585Z,35.80
2017-10-02T01:08:57.826Z,38.47
2017-10-02T01:11:24.062Z,34.50
2017-10-02T01:13:50.441Z,42.17
2017-10-02T01:16:16.674Z,41.50
2017-10-02T01:18:42.911Z,37.07
2017-10-02T01:21:09.308Z,54.27
2017-10-02T01:23:35.536Z,46.37
2017-10-02T01:26:01.776Z,40.77
2017-10-02T01:28:28.019Z,32.27
2017-10-02T01:30:54.262Z,35.57
2017-10-02T01:33:20.494Z,48.17
2017-10-02T01:35:46.740Z,33.20
2017-10-02T01:38:12.988Z,27.13
2017-10-02T01:40:39.218Z,38.13
2017-10-02T01:43:05.448Z,32.67
2017-10-02T01:45:31.686Z,28.73
2017-10-02T01:47:57.926Z,41.43
2017-10-02T01:50:24.174Z,32.30
2017-10-02T01:52:50.439Z,47.20
2017-10-02T01:55:16.664Z,36.73
2017-10-02T01:57:42.907Z,32.20
2017-10-02T02:00:09.206Z,31.73
2017-10-02T02:02:35.437Z,32.83
2017-10-02T02:05:01.660Z,31.10
2017-10-02T02:07:27.918Z,37.67
2017-10-02T02:09:54.147Z,33.20
2017-10-02T02:12:20.368Z,28.23
2017-10-02T02:14:46.636Z,31.03
2017-10-02T02:17:12.857Z,28.60
2017-10-02T02:19:39.089Z,37.10
2017-10-02T02:22:05.362Z,34.87
2017-10-02T02:24:31.597Z,36.20
2017-10-02T02:26:57.852Z,41.30
2017-10-02T02:29:24.128Z,37.80
2017-10-02T02:31:50.357Z,36.30
2017-10-02T02:34:16.595Z,38.20
2017-10-02T02:36:42.897Z,47.27
2017-10-02T02:39:09.133Z,47.90
2017-10-02T02:41:35.349Z,51.57
2017-10-02T02:44:01.628Z,42.43
2017-10-02T02:46:27.862Z,42.23
2017-10-02T02:48:54.088Z,29.33
2017-10-02T02:51:20.405Z,31.20
2017-10-02T02:53:46.629Z,30.90
2017-10-02T02:56:12.865Z,33.97
2017-10-02T02:58:39.144Z,33.53
2017-10-02T03:01:05.372Z,32.30
2017-10-02T03:03:31.592Z,31.73
2017-10-02T03:05:57.983Z,29.57
2017-10-02T03:08:24.222Z,29.63
2017-10-02T03:10:50.449Z,31.17
2017-10-02T03:13:16.717Z,28.70
2017-10-02T03:15:42.945Z,33.67
2017-10-02T03:18:09.299Z,36.20
2017-10-02T03:20:35.567Z,38.83
2017-10-02T03:23:01.787Z,50.00
2017-10-02T03:25:28.026Z,32.80
2017-10-02T03:27:54.297Z,33.03
2017-10-02T03:30:20.534Z,32.93
2017-10-02T03:32:46.753Z,36.17
2017-10-02T03:35:13.041Z,34.43
2017-10-02T03:37:39.276Z,39.10
2017-10-02T03:40:05.511Z,37.00
2017-10-02T03:42:32.009Z,35.10
2017-10-02T03:44:58.220Z,33.50
2017-10-02T03:47:24.433Z,39.80
2017-10-02T03:49:50.683Z,29.87
2017-10-02T03:52:16.968Z,35.33
2017-10-02T03:54:43.208Z,26.27
2017-10-02T03:57:09.471Z,26.90
2017-10-02T03:59:35.698Z,31.90
2017-10-02T04:02:01.931Z,32.43
2017-10-02T04:04:28.207Z,26.80
2017-10-02T04:06:54.442Z,21.10
2017-10-02T04:09:20.680Z,39.83
2017-10-02T04:11:46.950Z,24.90
2017-10-02T04:14:13.180Z,26.33
2017-10-02T04:16:39.447Z,22.23
2017-10-02T04:19:05.728Z,26.97
2017-10-02T04:21:31.955Z,24.37
2017-10-02T04:23:58.188Z,39.33
2017-10-02T04:26:24.555Z,23.60
2017-10-02T04:28:50.792Z,22.20
2017-10-02T04:31:17.033Z,26.47
2017-10-02T04:33:43.317Z,28.47
2017-10-02T04:36:09.550Z,25.17
2017-10-02T04:38:35.788Z,27.60
2017-10-02T04:41:02.063Z,23.63
2017-10-02T04:43:28.288Z,23.87
2017-10-02T04:45:54.524Z,26.03
2017-10-02T04:48:20.849Z,27.30
2017-10-02T04:50:47.106Z,29.23
2017-10-02T04:53:13.329Z,27.40
2017-10-02T04:55:39.610Z,29.30
2017-10-02T04:58:05.931Z,25.97
2017-10-02T05:00:32.164Z,26.63
2017-10-02T05:02:58.429Z,24.00
2017-10-02T05:05:24.666Z,25.60
2017-10-02T05:07:50.892Z,39.70
2017-10-02T05:10:17.279Z,27.33
2017-10-02T05:12:43.522Z,32.73
2017-10-02T05:15:09.759Z,35.90
2017-10-02T05:17:36.042Z,28.33
2017-10-02T05:20:02.271Z,27.00
2017-10-02T05:22:28.537Z,28.77
2017-10-02T05:24:54.884Z,29.17
2017-10-02T05:27:21.136Z,33.00
2017-10-02T05:29:47.359Z,28.60
2017-10-02T05:32:13.615Z,26.93
2017-10-02T05:34:39.858Z,29.07
2017-10-02T05:37:06.107Z,28.30
2017-10-02T05:39:32.437Z,24.13
2017-10-02T05:41:58.662Z,21.07
2017-10-02T05:44:25.043Z,20.70
2017-10-02T05:46:51.339Z,28.67
2017-10-02T05:49:17.589Z,19.80
2017-10-02T05:51:43.833Z,19.30
2017-10-02T05:54:10.112Z,22.20
2017-10-02T05:56:36.344Z,22.60
2017-10-02T05:59:02.572Z,21.37
2017-10-02T06:01:28.869Z,22.03
2017-10-02T06:03:55.130Z,21.90
2017-10-02T06:06:21.357Z,18.90
2017-10-02T06:08:47.622Z,17.60
2017-10-02T06:11:13.846Z,24.33
2017-10-02T06:13:40.065Z,25.20
2017-10-02T06:16:06.336Z,24.80
2017-10-02T06:18:32.677Z,22.00
2017-10-02T06:20:58.915Z,25.60
2017-10-02T06:23:25.190Z,22.13
2017-10-02T06:25:51.406Z,21.13
2017-10-02T06:28:17.624Z,22.47
2017-10-02T06:30:43.896Z,20.80
2017-10-02T06:33:10.122Z,21.57
2017-10-02T06:35:36.332Z,20.33
2017-10-02T06:38:02.605Z,21.70
2017-10-02T06:40:28.840Z,20.40
2017-10-02T06:42:55.187Z,19.87
2017-10-02T06:45:21.452Z,20.53
2017-10-02T06:47:47.687Z,19.03
2017-10-02T06:50:13.910Z,19.40
2017-10-02T06:52:40.200Z,19.00
2017-10-02T06:55:06.433Z,18.87
2017-10-02T06:57:32.661Z,17.00
2017-10-02T06:59:58.918Z,20.23
2017-10-02T07:02:25.139Z,20.80
2017-10-02T07:04:51.460Z,19.80
2017-10-02T07:07:17.718Z,18.13
2017-10-02T07:09:43.956Z,18.43
2017-10-02T07:12:10.176Z,20.27
2017-10-02T07:14:36.440Z,18.63
2017-10-02T07:17:02.680Z,15.87
2017-10-02T07:19:28.976Z,18.20
2017-10-02T07:21:55.271Z,18.27
2017-10-02T07:24:21.496Z,15.80
2017-10-02T07:26:47.739Z,16.03
2017-10-02T07:29:14.012Z,13.70
2017-10-02T07:31:40.242Z,15.87
2017-10-02T07:34:06.481Z,13.40
2017-10-02T07:36:32.762Z,13.37
2017-10-02T07:38:58.988Z,13.77
2017-10-02T07:41:25.280Z,10.43
2017-10-02T07:43:51.552Z,12.03
2017-10-02T07:46:17.778Z,11.47
2017-10-02T07:48:44.006Z,10.40
2017-10-02T07:51:10.258Z,10.83
2017-10-02T07:53:36.491Z,12.83
2017-10-02T07:56:02.722Z,10.70
2017-10-02T07:58:29.016Z,11.87
2017-10-02T08:00:55.272Z,12.13
2017-10-02T08:03:21.490Z,10.90
2017-10-02T08:05:47.750Z,11.30
2017-10-02T08:08:13.977Z,13.37
2017-10-02T08:10:40.208Z,12.73
2017-10-02T08:13:06.478Z,14.80
2017-10-02T08:15:32.740Z,14.37
2017-10-02T08:17:58.968Z,15.30
2017-10-02T08:20:25.228Z,15.50
2017-10-02T08:22:51.463Z,16.17
2017-10-02T08:25:17.714Z,15.40
2017-10-02T08:27:43.991Z,18.13
2017-10-02T08:30:10.224Z,19.30
2017-10-02T08:32:36.442Z,16.87
2017-10-02T08:35:02.707Z,16.37
2017-10-02T08:37:28.972Z,14.97
2017-10-02T08:39:55.210Z,15.30
2017-10-02T08:42:21.395Z,14.63
2017-10-02T08:44:47.574Z,14.80
2017-10-02T08:47:13.750Z,15.13
2017-10-02T08:49:39.921Z,16.43
2017-10-02T08:52:06.108Z,13.90
2017-10-02T08:54:32.289Z,16.10
2017-10-02T08:56:58.488Z,12.00
2017-10-02T08:59:24.663Z,14.00
2017-10-02T09:01:50.833Z,14.43
2017-10-02T09:04:17.019Z,13.50
2017-10-02T09:06:43.208Z,13.53
2017-10-02T09:09:09.403Z,11.33
2017-10-02T09:11:35.713Z,10.57
2017-10-02T09:14:01.891Z,11.33
2017-10-02T09:16:28.084Z,11.23
2017-10-02T09:18:54.293Z,10.00
2017-10-02T09:21:20.617Z,11.10
2017-10-02T09:23:46.809Z,13.00
2017-10-02T09:26:13.038Z,10.53
2017-10-02T09:28:39.226Z,12.00
2017-10-02T09:31:05.397Z,12.60
2017-10-02T09:33:31.627Z,10.53
2017-10-02T09:35:57.807Z,11.50
2017-10-02T09:38:23.979Z,10.57
2017-10-02T09:40:50.252Z,9.47
2017-10-02T09:43:16.422Z,11.30
2017-10-02T09:45:42.598Z,10.60
2017-10-02T09:48:08.813Z,10.17
2017-10-02T09:50:35.001Z,10.13
2017-10-02T09:53:01.185Z,10.00
2017-10-02T09:55:27.409Z,10.47
2017-10-02T09:57:53.592Z,9.10
2017-10-02T10:00:19.771Z,10.13
2017-10-02T10:02:45.993Z,9.80
2017-10-02T10:05:12.170Z,10.20
2017-10-02T10:07:38.343Z,8.77
2017-10-02T10:10:04.564Z,12.20
2017-10-02T10:12:30.729Z,11.63
2017-10-02T10:14:56.902Z,10.47
2017-10-02T10:17:23.106Z,11.23
2017-10-02T10:19:49.267Z,10.30
2017-10-02T10:22:15.438Z,10.03
2017-10-02T10:24:41.641Z,9.47
2017-10-02T10:27:07.812Z,9.93
2017-10-02T10:29:33.992Z,10.23
2017-10-02T10:32:00.269Z,9.70
2017-10-02T10:34:26.452Z,9.33
2017-10-02T10:36:52.614Z,8.87
2017-10-02T10:39:18.832Z,10.57
2017-10-02T10:41:45.015Z,10.17
2017-10-02T10:44:11.210Z,9.60
2017-10-02T10:46:37.426Z,10.00
2017-10-02T10:49:04.147Z,9.80
2017-10-02T10:51:30.318Z,10.57
2017-10-02T10:53:56.538Z,10.17
2017-10-02T10:56:22.702Z,11.27
2017-10-02T10:58:48.877Z,10.73
2017-10-02T11:01:15.078Z,10.80
2017-10-02T11:03:41.252Z,8.23
2017-10-02T11:06:07.437Z,8.80
2017-10-02T11:08:33.642Z,9.83
2017-10-02T11:10:59.829Z,10.40
2017-10-02T11:13:26.002Z,9.40
2017-10-02T11:15:52.376Z,11.60
2017-10-02T11:18:18.557Z,8.77
2017-10-02T11:20:44.739Z,8.93
2017-10-02T11:23:10.960Z,9.20
2017-10-02T11:25:37.138Z,9.17
2017-10-02T11:28:03.332Z,10.50
2017-10-02T11:30:29.565Z,8.83
2017-10-02T11:32:55.737Z,9.10
2017-10-02T11:35:22.010Z,8.10
2017-10-02T11:37:48.205Z,8.17
2017-10-02T11:40:14.394Z,9.60
2017-10-02T11:42:40.580Z,10.00
2017-10-02T11:45:06.806Z,8.47
2017-10-02T11:47:32.979Z,8.57
2017-10-02T11:49:59.165Z,10.63
2017-10-02T11:52:25.382Z,8.27
2017-10-02T11:54:51.558Z,8.33
2017-10-02T11:57:17.726Z,8.13
2017-10-02T11:59:43.939Z,8.23
2017-10-02T12:02:10.128Z,7.63
2017-10-02T12:04:36.321Z,8.73
2017-10-02T12:07:02.526Z,8.70
2017-10-02T12:09:28.720Z,9.17
2017-10-02T12:11:55.024Z,7.77
2017-10-02T12:14:21.230Z,9.10
2017-10-02T12:16:47.416Z,9.20
2017-10-02T12:19:13.586Z,8.90
2017-10-02T12:21:40.137Z,8.77
2017-10-02T12:24:06.332Z,8.33
2017-10-02T12:26:32.515Z,9.20
2017-10-02T12:28:58.817Z,8.83
2017-10-02T12:31:24.998Z,8.53
2017-10-02T12:33:51.180Z,8.60
2017-10-02T12:36:17.415Z,8.37
2017-10-02T12:38:43.608Z,8.27
2017-10-02T12:41:09.965Z,7.80
2017-10-02T12:43:36.207Z,8.93
2017-10-02T12:46:02.421Z,7.50
2017-10-02T12:48:28.591Z,7.97
2017-10-02T12:50:54.812Z,7.73
2017-10-02T12:53:20.987Z,7.20
2017-10-02T12:55:47.170Z,8.60
2017-10-02T12:58:13.401Z,9.07
2017-10-02T13:00:39.683Z,9.00
2017-10-02T13:03:05.868Z,8.40
2017-10-02T13:05:32.072Z,9.43
2017-10-02T13:07:58.242Z,8.57
2017-10-02T13:10:24.619Z,8.20
2017-10-02T13:12:50.852Z,9.23
2017-10-02T13:15:17.045Z,9.20
2017-10-02T13:17:43.243Z,9.27
2017-10-02T13:20:09.511Z,9.43
2017-10-02T13:22:35.695Z,9.70
2017-10-02T13:25:01.862Z,8.40
2017-10-02T13:27:28.070Z,8.07
2017-10-02T13:29:54.385Z,8.87
2017-10-02T13:32:20.553Z,9.60
2017-10-02T13:34:46.771Z,10.97
2017-10-02T13:37:12.942Z,9.63
2017-10-02T13:39:39.106Z,9.43
2017-10-02T13:42:05.373Z,9.70
2017-10-02T13:44:31.539Z,9.43
2017-10-02T13:46:57.828Z,10.10
2017-10-02T13:49:24.069Z,10.60
2017-10-02T13:51:50.279Z,11.73
2017-10-02T13:54:16.472Z,10.10
2017-10-02T13:56:42.715Z,14.37
2017-10-02T13:59:08.884Z,9.80
2017-10-02T14:01:35.069Z,9.00
2017-10-02T14:04:01.299Z,10.03
2017-10-02T14:06:27.700Z,10.13
2017-10-02T14:08:54.060Z,10.23
2017-10-02T14:11:20.295Z,9.37
2017-10-02T14:13:46.473Z,10.13
2017-10-02T14:16:12.782Z,9.30
2017-10-02T14:18:39.012Z,9.57
2017-10-02T14:21:05.190Z,9.33
2017-10-02T14:23:31.363Z,9.30
2017-10-02T14:25:57.573Z,10.03
2017-10-02T14:28:23.938Z,9.97
2017-10-02T14:30:50.114Z,7.80
2017-10-02T14:33:16.337Z,9.13
2017-10-02T14:35:42.527Z,10.40
2017-10-02T14:38:08.737Z,8.97
2017-10-02T14:40:35.064Z,10.83
2017-10-02T14:43:01.243Z,12.00
2017-10-02T14:45:27.419Z,14.20
2017-10-02T14:47:53.614Z,12.00
2017-10-02T14:50:19.784Z,10.70
2017-10-02T14:52:45.966Z,10.37
2017-10-02T14:55:12.219Z,12.60
2017-10-02T14:57:38.396Z,12.20
2017-10-02T15:00:04.991Z,12.20
2017-10-02T15:02:31.239Z,12.03
2017-10-02T15:04:57.408Z,13.30
2017-10-02T15:07:23.698Z,17.97
2017-10-02T15:09:49.905Z,16.70
2017-10-02T15:12:16.077Z,19.13
2017-10-02T15:14:42.260Z,20.30
2017-10-02T15:17:08.490Z,15.90
2017-10-02T15:19:34.648Z,14.40
2017-10-02T15:22:00.816Z,12.93
2017-10-02T15:24:27.037Z,13.20
2017-10-02T15:26:53.208Z,12.97
2017-10-02T15:29:19.406Z,13.67
2017-10-02T15:31:45.614Z,13.40
2017-10-02T15:34:11.809Z,13.37
2017-10-02T15:36:38.032Z,13.60
2017-10-02T15:39:04.240Z,13.33
2017-10-02T15:41:30.419Z,14.10
2017-10-02T15:43:56.647Z,13.23
2017-10-02T15:46:22.870Z,13.37
2017-10-02T15:48:49.045Z,14.57
2017-10-02T15:51:15.213Z,13.40
2017-10-02T15:53:41.424Z,14.33
2017-10-02T15:56:07.590Z,15.20
2017-10-02T15:58:33.770Z,17.17
2017-10-02T16:01:00.013Z,16.17
2017-10-02T16:03:26.196Z,16.70
2017-10-02T16:05:52.374Z,15.80
2017-10-02T16:08:18.592Z,17.10
2017-10-02T16:10:44.765Z,17.50
2017-10-02T16:13:10.956Z,16.73
2017-10-02T16:15:37.179Z,16.97
2017-10-02T16:18:03.350Z,18.23
2017-10-02T16:20:29.521Z,16.53
2017-10-02T16:22:55.742Z,18.27
2017-10-02T16:25:21.928Z,17.23
2017-10-02T16:27:48.116Z,18.83
2017-10-02T16:30:14.323Z,19.67
2017-10-02T16:32:40.494Z,19.47
2017-10-02T16:35:06.673Z,17.20
2017-10-02T16:37:32.885Z,18.43
2017-10-02T16:39:59.061Z,19.37
2017-10-02T16:42:25.222Z,15.00
2017-10-02T16:44:51.423Z,18.37
2017-10-02T16:47:17.596Z,20.03
2017-10-02T16:49:43.769Z,17.57
2017-10-02T16:52:09.997Z,17.57
2017-10-02T16:54:36.180Z,20.33
2017-10-02T16:57:02.396Z,20.67
2017-10-02T16:59:28.596Z,20.13
2017-10-02T17:01:54.763Z,19.70
2017-10-02T17:04:20.930Z,21.90
2017-10-02T17:06:47.156Z,19.10
2017-10-02T17:09:13.364Z,15.60
2017-10-02T17:11:39.585Z,20.77
2017-10-02T17:14:05.819Z,20.13
2017-10-02T17:16:32.123Z,19.70
2017-10-02T17:18:58.291Z,22.80
2017-10-02T17:21:24.508Z,19.67
2017-10-02T17:23:50.679Z,19.30
2017-10-02T17:26:16.929Z,18.87
2017-10-02T17:28:43.321Z,22.37
2017-10-02T17:31:09.482Z,19.30
2017-10-02T17:33:35.660Z,19.30
2017-10-02T17:36:01.857Z,20.33
2017-10-02T17:38:28.036Z,21.13
2017-10-02T17:40:54.226Z,18.80
2017-10-02T17:45:52.991Z,17.80
2017-10-02T17:48:19.194Z,21.90
2017-10-02T17:50:45.373Z,23.97
2017-10-02T17:53:11.546Z,24.40
2017-10-02T17:55:37.772Z,23.87
2017-10-02T17:58:03.953Z,24.52
2017-10-02T18:00:30.118Z,21.20
2017-10-02T18:02:56.366Z,20.80
2017-10-02T18:05:22.552Z,23.07
2017-10-02T18:07:48.746Z,23.20
2017-10-02T18:10:15.044Z,22.00
2017-10-02T18:12:41.227Z,21.33
2017-10-02T18:15:07.535Z,22.23
2017-10-02T18:17:33.742Z,23.00
2017-10-02T18:19:59.911Z,21.43
2017-10-02T18:22:26.089Z,21.20
2017-10-02T18:24:52.302Z,22.57
2017-10-02T18:27:18.503Z,21.83
2017-10-02T18:29:44.679Z,20.70
2017-10-02T18:32:10.887Z,23.55
2017-10-02T18:34:37.047Z,20.87
2017-10-02T18:37:03.243Z,21.63
2017-10-02T18:39:29.491Z,21.90
2017-10-02T18:41:55.675Z,20.90
2017-10-02T18:44:22.666Z,21.67
2017-10-02T18:46:48.872Z,20.50
2017-10-02T18:49:15.233Z,23.90
2017-10-02T18:51:41.446Z,22.33
2017-10-02T18:54:10.563Z,22.83
2017-10-02T18:56:36.860Z,21.17
2017-10-02T18:59:04.021Z,20.53
2017-10-02T19:01:30.224Z,19.00
2017-10-02T19:03:56.422Z,21.87
2017-10-02T19:06:22.715Z,21.00
2017-10-02T19:08:48.904Z,22.93
2017-10-02T19:13:50.098Z,21.73
2017-10-02T19:16:16.268Z,22.70
2017-10-02T19:18:42.457Z,23.00
2017-10-02T19:21:08.643Z,21.83
2017-10-02T19:23:35.034Z,20.70
2017-10-02T19:26:01.239Z,20.20
2017-10-02T19:28:27.473Z,19.83
2017-10-02T19:30:53.650Z,23.50
2017-10-02T19:33:19.855Z,21.10
2017-10-02T19:35:46.056Z,20.10
2017-10-02T19:38:12.247Z,20.20
2017-10-02T19:40:38.490Z,21.40
2017-10-02T19:43:04.652Z,22.57
2017-10-02T19:45:30.832Z,20.87
2017-10-02T19:47:57.112Z,22.27
2017-10-02T19:50:23.350Z,21.30
2017-10-02T19:52:49.520Z,21.87
2017-10-02T19:55:15.747Z,20.63
2017-10-02T19:57:41.941Z,20.20
2017-10-02T20:00:08.122Z,21.67
2017-10-02T20:02:34.489Z,21.47
2017-10-02T20:05:00.697Z,19.47
2017-10-02T20:07:26.918Z,21.43
2017-10-02T20:09:53.131Z,20.80
2017-10-02T20:12:19.311Z,20.77
2017-10-02T20:14:45.489Z,20.70
2017-10-02T20:17:11.680Z,21.80
2017-10-02T20:19:37.875Z,21.27
2017-10-02T20:22:04.227Z,22.17
2017-10-02T20:24:30.420Z,24.70
2017-10-02T20:26:57.354Z,24.10
2017-10-02T20:29:23.593Z,26.50
2017-10-02T20:31:49.962Z,21.70
2017-10-02T20:34:16.150Z,24.03
2017-10-02T20:36:43.496Z,22.40
2017-10-02T20:39:09.670Z,23.20
2017-10-02T20:41:35.843Z,24.67
2017-10-02T20:44:02.037Z,26.17
2017-10-02T20:46:28.274Z,22.37
2017-10-02T20:48:54.449Z,23.43
2017-10-02T20:51:20.675Z,21.77
2017-10-02T20:53:53.460Z,24.30
2017-10-02T20:56:19.636Z,24.00
2017-10-02T20:58:45.864Z,25.30
2017-10-02T21:01:13.388Z,22.10
2017-10-02T21:03:39.597Z,25.70
2017-10-02T21:06:05.825Z,22.87
2017-10-02T21:08:32.015Z,23.10
2017-10-02T21:10:58.217Z,23.87
2017-10-02T21:13:24.441Z,20.20
2017-10-02T21:15:50.627Z,22.47
2017-10-02T21:18:16.826Z,22.50
2017-10-02T21:20:43.062Z,25.10
2017-10-02T21:25:53.667Z,21.27
2017-10-02T21:28:19.944Z,21.47
2017-10-02T21:30:46.140Z,21.93
2017-10-02T21:33:12.370Z,22.43
2017-10-02T21:35:38.553Z,21.50
2017-10-02T21:38:04.750Z,20.50
2017-10-02T21:40:30.967Z,21.43
2017-10-02T21:42:57.166Z,21.33
2017-10-02T21:45:23.371Z,20.00
2017-10-02T21:47:50.551Z,20.97
2017-10-02T21:50:16.764Z,21.70
2017-10-02T21:52:42.955Z,21.57
2017-10-02T21:55:09.183Z,21.30
2017-10-02T21:57:35.368Z,19.40
2017-10-02T22:00:01.566Z,21.00
2017-10-02T22:02:27.807Z,20.80
2017-10-02T22:04:54.000Z,22.53
2017-10-02T22:07:20.183Z,22.90
2017-10-02T22:09:46.393Z,22.40
2017-10-02T22:12:12.569Z,26.47
2017-10-02T22:14:38.739Z,23.43
2017-10-02T22:17:04.958Z,25.20
2017-10-02T22:19:31.146Z,23.73
2017-10-02T22:21:57.356Z,25.73
2017-10-02T22:24:23.597Z,21.70
2017-10-02T22:26:49.790Z,27.30
2017-10-02T22:29:15.976Z,29.37
2017-10-02T22:31:42.237Z,26.17
2017-10-02T22:34:08.431Z,23.70
2017-10-02T22:36:34.624Z,26.90
2017-10-02T22:39:00.867Z,28.17
2017-10-02T22:41:27.060Z,23.20
2017-10-02T22:43:53.241Z,22.20
2017-10-02T22:46:19.477Z,18.87
2017-10-02T22:48:45.667Z,22.20
2017-10-02T22:51:11.851Z,22.10
2017-10-02T22:53:38.080Z,21.07
2017-10-02T22:56:04.259Z,23.87
2017-10-02T22:58:30.457Z,21.70
2017-10-02T23:00:56.709Z,21.27
2017-10-02T23:03:22.893Z,22.90
2017-10-02T23:05:49.078Z,23.23
2017-10-02T23:08:15.307Z,23.07
2017-10-02T23:10:41.509Z,22.60
2017-10-02T23:13:07.702Z,22.33
2017-10-02T23:15:33.940Z,23.23
2017-10-02T23:18:00.128Z,21.50
2017-10-02T23:20:26.322Z,22.20
2017-10-02T23:22:52.555Z,21.27
2017-10-02T23:25:18.742Z,23.10
2017-10-02T23:27:44.940Z,20.20
2017-10-02T23:30:11.186Z,21.60
2017-10-02T23:32:37.394Z,22.43
2017-10-02T23:35:03.594Z,19.83
2017-10-02T23:37:29.822Z,20.53
2017-10-02T23:39:56.008Z,19.77
2017-10-02T23:42:22.196Z,20.40
2017-10-02T23:44:48.414Z,20.50
2017-10-02T23:47:14.613Z,22.10
2017-10-02T23:49:40.786Z,22.17
2017-10-02T23:52:07.003Z,22.73
2017-10-02T23:54:33.219Z,21.50
2017-10-02T23:56:59.402Z,21.93
2017-10-02T23:59:25.630Z,22.43
